createdAt,value
2022-12-16T00:01:28.334Z,24.53
2022-12-16T00:03:58.575Z,27.03
2022-12-16T00:06:30.753Z,28.20
2022-12-16T00:08:59.418Z,24.53
2022-12-16T00:11:27.701Z,24.60
2022-12-16T00:13:55.522Z,24.17
2022-12-16T00:16:23.490Z,26.57
2022-12-16T00:18:52.702Z,26.00
2022-12-16T00:21:20.925Z,23.63
2022-12-16T00:23:49.164Z,24.53
2022-12-16T00:26:16.987Z,25.60
2022-12-16T00:28:44.797Z,24.77
2022-12-16T00:31:13.031Z,24.17
2022-12-16T00:33:41.023Z,24.30
2022-12-16T00:36:10.935Z,25.70
2022-12-16T00:38:39.280Z,24.30
2022-12-16T00:41:08.075Z,26.30
2022-12-16T00:43:36.217Z,25.80
2022-12-16T00:46:04.311Z,28.37
2022-12-16T00:48:32.160Z,25.90
2022-12-16T00:50:59.991Z,25.43
2022-12-16T00:53:29.484Z,23.63
2022-12-16T00:56:03.952Z,24.30
2022-12-16T00:58:31.785Z,26.23
2022-12-16T01:00:59.705Z,25.20
2022-12-16T01:03:27.979Z,24.10
2022-12-16T01:05:55.828Z,24.90
2022-12-16T01:08:24.071Z,24.90
2022-12-16T01:10:55.378Z,26.77
2022-12-16T01:13:24.239Z,27.03
2022-12-16T01:15:52.212Z,26.73
2022-12-16T01:18:20.578Z,28.17
2022-12-16T01:20:48.418Z,26.10
2022-12-16T01:23:16.237Z,25.77
2022-12-16T01:25:44.055Z,25.43
2022-12-16T01:28:13.193Z,26.20
2022-12-16T01:30:41.032Z,27.10
2022-12-16T01:33:08.820Z,24.43
2022-12-16T01:35:55.174Z,25.87
2022-12-16T01:38:24.128Z,26.07
2022-12-16T01:40:52.573Z,25.27
2022-12-16T01:43:28.061Z,25.83
2022-12-16T01:46:00.190Z,23.73
2022-12-16T01:48:36.708Z,26.47
2022-12-16T01:51:08.118Z,27.53
2022-12-16T01:53:39.041Z,24.50
2022-12-16T01:56:07.630Z,24.87
2022-12-16T01:58:40.489Z,26.23
2022-12-16T02:01:09.031Z,26.40
2022-12-16T02:03:38.267Z,24.47
2022-12-16T02:06:07.992Z,24.40
2022-12-16T02:08:36.445Z,24.47
2022-12-16T02:11:37.738Z,25.73
2022-12-16T02:14:31.939Z,23.47
2022-12-16T02:17:04.787Z,24.70
2022-12-16T02:20:03.840Z,25.17
2022-12-16T02:22:43.820Z,25.33
2022-12-16T02:25:37.983Z,23.97
2022-12-16T02:28:11.352Z,25.30
2022-12-16T02:30:57.255Z,24.43
2022-12-16T02:33:36.721Z,24.50
2022-12-16T02:36:13.149Z,25.20
2022-12-16T02:38:53.382Z,24.90
2022-12-16T02:41:31.327Z,22.93
2022-12-16T02:44:03.762Z,24.57
2022-12-16T02:46:34.771Z,23.67
2022-12-16T02:49:07.644Z,24.30
2022-12-16T02:51:37.443Z,23.83
2022-12-16T02:54:06.633Z,24.87
2022-12-16T02:56:48.534Z,24.27
2022-12-16T02:59:21.585Z,24.50
2022-12-16T03:01:56.806Z,23.20
2022-12-16T03:04:30.971Z,24.57
2022-12-16T03:07:01.590Z,23.30
2022-12-16T03:09:34.645Z,24.00
2022-12-16T03:12:06.851Z,24.93
2022-12-16T03:14:37.798Z,23.37
2022-12-16T03:17:08.520Z,25.07
2022-12-16T03:19:39.215Z,24.33
2022-12-16T03:22:11.588Z,24.60
2022-12-16T03:24:40.407Z,23.03
2022-12-16T03:27:15.125Z,24.67
2022-12-16T03:29:51.520Z,23.17
2022-12-16T03:32:28.138Z,24.03
2022-12-16T03:35:01.926Z,24.37
2022-12-16T03:37:34.140Z,26.40
2022-12-16T03:40:05.124Z,24.30
2022-12-16T03:42:34.093Z,26.37
2022-12-16T03:45:02.066Z,24.40
2022-12-16T03:47:31.431Z,25.17
2022-12-16T03:49:59.277Z,24.90
2022-12-16T03:52:27.085Z,25.20
2022-12-16T03:54:55.227Z,24.80
2022-12-16T03:57:23.040Z,24.77
2022-12-16T03:59:50.875Z,24.13
2022-12-16T04:02:18.847Z,22.70
2022-12-16T04:04:48.209Z,23.43
2022-12-16T04:07:22.000Z,23.60
2022-12-16T04:09:52.542Z,23.50
2022-12-16T04:12:38.525Z,22.17
2022-12-16T04:15:25.421Z,22.90
2022-12-16T04:18:11.220Z,22.17
2022-12-16T04:21:01.309Z,21.83
2022-12-16T04:23:49.018Z,21.10
2022-12-16T04:26:17.355Z,23.13
2022-12-16T04:28:45.477Z,22.10
2022-12-16T04:31:13.366Z,22.37
2022-12-16T04:33:59.813Z,22.13
2022-12-16T04:36:46.587Z,22.10
2022-12-16T04:39:31.976Z,23.07
2022-12-16T04:42:17.509Z,21.93
2022-12-16T04:45:02.948Z,22.60
2022-12-16T04:47:51.428Z,23.07
2022-12-16T04:50:39.377Z,21.20
2022-12-16T04:53:26.164Z,22.00
2022-12-16T04:56:11.583Z,21.93
2022-12-16T04:58:56.999Z,20.53
2022-12-16T05:01:42.495Z,20.87
2022-12-16T05:04:27.763Z,19.93
2022-12-16T05:07:13.143Z,22.47
2022-12-16T05:09:59.903Z,20.70
2022-12-16T05:12:45.492Z,20.83
2022-12-16T05:15:30.832Z,22.03
2022-12-16T05:18:16.352Z,20.33
2022-12-16T05:21:01.761Z,21.30
2022-12-16T05:23:47.219Z,20.50
2022-12-16T05:26:34.022Z,20.27
2022-12-16T05:29:19.543Z,19.40
2022-12-16T05:32:04.903Z,20.87
2022-12-16T05:34:50.300Z,22.17
2022-12-16T05:37:32.088Z,20.70
2022-12-16T05:40:17.497Z,20.20
2022-12-16T05:43:06.181Z,21.77
2022-12-16T05:45:51.910Z,20.30
2022-12-16T05:48:37.447Z,20.60
2022-12-16T05:51:23.050Z,20.47
2022-12-16T05:54:08.590Z,20.63
2022-12-16T05:56:50.332Z,19.47
2022-12-16T05:59:37.203Z,20.60
2022-12-16T06:02:22.740Z,19.30
2022-12-16T06:05:07.988Z,20.67
2022-12-16T06:07:53.420Z,21.20
2022-12-16T06:10:38.934Z,19.00
2022-12-16T06:13:24.390Z,20.17
2022-12-16T06:16:11.176Z,20.30
2022-12-16T06:18:56.507Z,20.53
2022-12-16T06:21:42.511Z,20.50
2022-12-16T06:24:28.087Z,21.33
2022-12-16T06:27:13.507Z,19.80
2022-12-16T06:29:58.776Z,21.37
2022-12-16T06:32:45.571Z,20.53
2022-12-16T06:35:31.058Z,20.00
2022-12-16T06:38:16.524Z,19.90
2022-12-16T06:41:02.080Z,21.63
2022-12-16T06:43:47.307Z,20.63
2022-12-16T06:46:32.941Z,20.17
2022-12-16T06:49:20.054Z,19.10
2022-12-16T06:52:05.548Z,19.57
2022-12-16T06:54:50.985Z,19.13
2022-12-16T06:57:36.329Z,21.17
2022-12-16T07:00:22.692Z,19.57
2022-12-16T07:03:08.320Z,20.00
2022-12-16T07:05:55.009Z,20.03
2022-12-16T07:08:40.514Z,18.37
2022-12-16T07:11:25.992Z,19.50
2022-12-16T07:14:11.348Z,19.23
2022-12-16T07:16:56.973Z,19.40
2022-12-16T07:19:42.461Z,20.37
2022-12-16T07:22:29.260Z,19.53
2022-12-16T07:25:14.830Z,18.87
2022-12-16T07:28:04.704Z,20.43
2022-12-16T07:30:50.185Z,20.30
2022-12-16T07:33:35.548Z,20.10
2022-12-16T07:36:21.279Z,19.90
2022-12-16T07:39:08.063Z,21.03
2022-12-16T07:41:54.084Z,18.90
2022-12-16T07:44:39.540Z,19.47
2022-12-16T07:47:36.591Z,19.67
2022-12-16T07:50:22.293Z,20.30
2022-12-16T07:53:12.672Z,20.30
2022-12-16T07:55:59.502Z,21.13
2022-12-16T07:58:44.927Z,20.63
2022-12-16T08:01:30.657Z,21.67
2022-12-16T08:04:16.160Z,22.37
2022-12-16T08:07:01.782Z,20.10
2022-12-16T08:09:46.965Z,20.77
2022-12-16T08:12:33.745Z,19.60
2022-12-16T08:15:19.346Z,19.43
2022-12-16T08:18:08.540Z,20.00
2022-12-16T08:20:55.321Z,19.57
2022-12-16T08:23:41.328Z,21.57
2022-12-16T08:26:26.757Z,19.10
2022-12-16T08:29:42.732Z,21.20
2022-12-16T08:32:18.821Z,21.60
2022-12-16T08:35:04.395Z,21.50
2022-12-16T08:37:49.993Z,20.00
2022-12-16T08:40:37.036Z,21.07
2022-12-16T08:43:22.935Z,21.00
2022-12-16T08:46:12.539Z,22.30
2022-12-16T08:48:57.954Z,21.53
2022-12-16T08:51:43.525Z,21.30
2022-12-16T08:54:28.943Z,20.07
2022-12-16T08:57:14.413Z,19.60
2022-12-16T08:59:59.893Z,20.17
2022-12-16T09:02:47.250Z,20.17
2022-12-16T09:05:32.636Z,18.93
2022-12-16T09:08:19.044Z,18.10
2022-12-16T09:11:04.691Z,18.17
2022-12-16T09:14:01.516Z,18.37
2022-12-16T09:16:55.277Z,18.50
2022-12-16T09:19:42.744Z,17.60
2022-12-16T09:22:28.281Z,18.07
2022-12-16T09:25:13.675Z,18.23
2022-12-16T09:27:59.184Z,18.97
2022-12-16T09:30:44.572Z,17.43
2022-12-16T09:33:30.461Z,18.43
2022-12-16T09:36:17.368Z,17.43
2022-12-16T09:39:02.764Z,17.43
2022-12-16T09:41:59.757Z,16.37
2022-12-16T09:45:01.259Z,16.13
2022-12-16T09:48:10.963Z,16.07
2022-12-16T09:50:58.538Z,15.47
2022-12-16T09:53:47.150Z,15.27
2022-12-16T09:56:35.546Z,16.80
2022-12-16T09:59:26.140Z,15.30
2022-12-16T10:02:24.308Z,15.27
2022-12-16T10:05:11.031Z,15.13
2022-12-16T10:08:05.443Z,15.00
2022-12-16T10:10:59.616Z,15.80
2022-12-16T10:13:54.244Z,14.20
2022-12-16T10:16:47.571Z,15.27
2022-12-16T10:19:49.624Z,14.83
2022-12-16T10:22:43.826Z,13.87
2022-12-16T10:25:35.457Z,15.00
2022-12-16T10:28:31.997Z,15.57
2022-12-16T10:31:18.182Z,14.27
2022-12-16T10:34:07.608Z,16.60
2022-12-16T10:36:54.553Z,15.00
2022-12-16T10:39:43.880Z,14.90
2022-12-16T10:42:39.091Z,15.07
2022-12-16T10:45:39.712Z,16.00
2022-12-16T10:48:27.212Z,15.17
2022-12-16T10:51:12.568Z,16.37
2022-12-16T10:53:57.894Z,15.97
2022-12-16T10:57:09.904Z,15.70
2022-12-16T10:59:57.903Z,15.40
2022-12-16T11:02:46.174Z,15.10
2022-12-16T11:05:51.918Z,15.47
2022-12-16T11:08:44.064Z,16.00
2022-12-16T11:11:38.532Z,15.80
2022-12-16T11:14:37.117Z,16.70
2022-12-16T11:17:37.868Z,15.73
2022-12-16T11:20:32.143Z,15.70
2022-12-16T11:23:36.696Z,16.60
2022-12-16T11:26:33.086Z,16.40
2022-12-16T11:29:29.346Z,16.30
2022-12-16T11:32:19.140Z,16.63
2022-12-16T11:35:10.439Z,17.30
2022-12-16T11:37:58.549Z,18.03
2022-12-16T11:40:44.598Z,18.10
2022-12-16T11:43:32.738Z,16.00
2022-12-16T11:46:22.479Z,16.87
2022-12-16T11:49:11.074Z,17.60
2022-12-16T11:52:20.980Z,16.80
2022-12-16T11:55:15.367Z,16.37
2022-12-16T11:58:06.203Z,17.20
2022-12-16T12:00:58.268Z,17.80
2022-12-16T12:03:46.436Z,16.60
2022-12-16T12:06:43.167Z,16.63
2022-12-16T12:09:34.865Z,17.00
2022-12-16T12:12:33.721Z,19.20
2022-12-16T12:15:29.191Z,24.00
2022-12-16T12:18:20.594Z,22.63
2022-12-16T12:21:16.658Z,21.80
2022-12-16T12:24:10.031Z,19.83
2022-12-16T12:27:02.032Z,20.23
2022-12-16T12:29:52.062Z,21.53
2022-12-16T12:32:44.606Z,18.77
2022-12-16T12:35:46.751Z,19.70
2022-12-16T12:38:37.235Z,20.27
2022-12-16T12:41:30.831Z,19.83
2022-12-16T12:44:24.919Z,19.20
2022-12-16T12:47:17.312Z,17.60
2022-12-16T12:50:08.362Z,18.90
2022-12-16T12:53:18.073Z,17.50
2022-12-16T12:56:13.755Z,18.67
2022-12-16T12:59:12.258Z,17.37
2022-12-16T13:02:01.297Z,19.80
2022-12-16T13:04:59.128Z,17.50
2022-12-16T13:07:44.537Z,20.23
2022-12-16T13:10:32.395Z,18.20
2022-12-16T13:13:49.841Z,18.00
2022-12-16T13:17:25.809Z,19.50
2022-12-16T13:20:14.718Z,17.10
2022-12-16T13:23:01.749Z,23.33
2022-12-16T13:25:59.274Z,22.70
2022-12-16T13:28:48.071Z,20.33
2022-12-16T13:31:33.989Z,20.93
2022-12-16T13:34:24.957Z,18.77
2022-12-16T13:37:23.599Z,18.80
2022-12-16T13:40:22.935Z,20.20
2022-12-16T13:43:13.402Z,19.63
2022-12-16T13:46:01.056Z,19.23
2022-12-16T13:48:55.250Z,19.83
2022-12-16T13:52:26.286Z,20.27
2022-12-16T13:55:25.098Z,18.07
2022-12-16T13:58:18.547Z,18.07
2022-12-16T14:01:16.012Z,18.30
2022-12-16T14:04:05.994Z,17.87
2022-12-16T14:06:55.455Z,19.67
2022-12-16T14:09:54.620Z,19.00
2022-12-16T14:13:02.402Z,18.50
2022-12-16T14:15:54.365Z,18.17
2022-12-16T14:18:50.424Z,17.63
2022-12-16T14:21:42.552Z,17.70
2022-12-16T14:24:36.503Z,18.00
2022-12-16T14:27:29.805Z,19.03
2022-12-16T14:30:17.188Z,18.83
2022-12-16T14:33:02.661Z,18.60
2022-12-16T14:35:48.127Z,18.97
2022-12-16T14:38:44.587Z,18.50
2022-12-16T14:41:31.553Z,17.23
2022-12-16T14:44:17.387Z,18.80
2022-12-16T14:47:09.085Z,18.70
2022-12-16T14:49:54.412Z,18.60
2022-12-16T14:52:41.941Z,18.17
2022-12-16T14:55:34.460Z,17.53
2022-12-16T14:58:25.223Z,18.93
2022-12-16T15:01:15.969Z,17.80
2022-12-16T15:04:05.267Z,19.57
2022-12-16T15:06:56.341Z,19.53
2022-12-16T15:09:46.901Z,18.10
2022-12-16T15:12:34.311Z,17.70
2022-12-16T15:15:23.601Z,18.73
2022-12-16T15:18:11.224Z,17.20
2022-12-16T15:21:06.099Z,18.00
2022-12-16T15:23:52.957Z,17.20
2022-12-16T15:26:39.566Z,17.53
2022-12-16T15:29:46.572Z,18.27
2022-12-16T15:32:48.907Z,18.30
2022-12-16T15:35:45.139Z,17.13
2022-12-16T15:38:42.110Z,15.93
2022-12-16T15:41:39.560Z,20.57
2022-12-16T15:44:40.528Z,17.57
2022-12-16T15:47:39.066Z,22.05
2022-12-16T15:50:25.616Z,17.27
2022-12-16T15:53:11.084Z,16.03
2022-12-16T15:56:04.659Z,17.77
2022-12-16T15:58:52.411Z,18.77
2022-12-16T16:01:40.324Z,16.97
2022-12-16T16:04:37.960Z,16.87
2022-12-16T16:07:31.985Z,16.33
2022-12-16T16:10:27.050Z,16.70
2022-12-16T16:13:13.793Z,14.90
2022-12-16T16:15:59.497Z,15.83
2022-12-16T16:18:44.697Z,16.07
2022-12-16T16:21:30.387Z,19.37
2022-12-16T16:24:18.107Z,19.50
2022-12-16T16:27:03.652Z,17.33
2022-12-16T16:29:50.265Z,16.93
2022-12-16T16:32:35.724Z,17.27
2022-12-16T16:35:21.265Z,20.40
2022-12-16T16:38:06.910Z,17.40
2022-12-16T16:40:54.835Z,16.97
2022-12-16T16:43:41.281Z,18.30
2022-12-16T16:46:51.424Z,17.60
2022-12-16T16:49:40.856Z,16.53
2022-12-16T16:52:30.857Z,18.07
2022-12-16T16:55:16.469Z,17.17
2022-12-16T16:58:02.316Z,24.87
2022-12-16T17:00:47.691Z,21.87
2022-12-16T17:03:34.938Z,21.60
2022-12-16T17:06:20.577Z,20.03
2022-12-16T17:09:06.316Z,25.63
2022-12-16T17:11:52.771Z,24.60
2022-12-16T17:14:39.718Z,20.67
2022-12-16T17:17:26.066Z,19.17
2022-12-16T17:20:12.860Z,19.70
2022-12-16T17:22:58.458Z,17.10
2022-12-16T17:25:44.246Z,17.23
2022-12-16T17:28:30.341Z,19.93
2022-12-16T17:31:15.971Z,16.93
2022-12-16T17:34:01.150Z,18.37
2022-12-16T17:36:47.945Z,20.60
2022-12-16T17:39:33.470Z,18.27
2022-12-16T17:42:18.748Z,19.90
2022-12-16T17:45:04.196Z,18.23
2022-12-16T17:47:49.594Z,30.47
2022-12-16T17:50:35.027Z,20.60
2022-12-16T17:53:21.809Z,18.47
2022-12-16T17:56:07.132Z,19.47
2022-12-16T17:58:54.086Z,19.97
2022-12-16T18:01:40.188Z,20.20
2022-12-16T18:04:26.369Z,21.30
2022-12-16T18:07:12.148Z,20.57
2022-12-16T18:09:59.089Z,21.83
2022-12-16T18:12:45.226Z,20.80
2022-12-16T18:15:30.779Z,21.70
2022-12-16T18:18:16.085Z,17.50
2022-12-16T18:21:01.588Z,18.90
2022-12-16T18:23:48.391Z,22.63
2022-12-16T18:26:36.033Z,21.87
2022-12-16T18:29:21.540Z,22.07
2022-12-16T18:32:18.717Z,19.80
2022-12-16T18:35:04.132Z,19.83
2022-12-16T18:37:49.552Z,19.50
2022-12-16T18:40:35.059Z,19.97
2022-12-16T18:43:21.981Z,19.47
2022-12-16T18:46:11.076Z,21.50
2022-12-16T18:48:56.385Z,21.27
2022-12-16T18:51:41.869Z,22.40
2022-12-16T18:54:27.208Z,23.97
2022-12-16T18:57:12.704Z,22.53
2022-12-16T18:59:59.447Z,22.20
2022-12-16T19:02:56.494Z,23.50
2022-12-16T19:05:42.081Z,21.60
2022-12-16T19:08:27.614Z,23.43
2022-12-16T19:11:14.977Z,21.33
2022-12-16T19:14:00.354Z,23.33
2022-12-16T19:16:47.267Z,22.67
2022-12-16T19:19:32.654Z,22.57
2022-12-16T19:22:18.118Z,21.00
2022-12-16T19:25:03.624Z,21.60
2022-12-16T19:27:49.128Z,21.40
2022-12-16T19:30:36.228Z,21.50
2022-12-16T19:33:23.573Z,21.63
2022-12-16T19:36:09.061Z,21.03
2022-12-16T19:38:55.045Z,21.60
2022-12-16T19:41:42.063Z,23.60
2022-12-16T19:44:27.427Z,21.90
2022-12-16T19:47:12.871Z,22.80
2022-12-16T19:49:59.710Z,22.37
2022-12-16T19:52:45.152Z,22.67
2022-12-16T19:55:31.696Z,21.07
2022-12-16T19:58:17.064Z,22.10
2022-12-16T20:01:02.480Z,23.87
2022-12-16T20:03:48.818Z,26.17
2022-12-16T20:06:35.911Z,25.87
2022-12-16T20:09:21.476Z,24.00
2022-12-16T20:12:06.873Z,22.77
2022-12-16T20:14:52.265Z,33.20
2022-12-16T20:17:38.737Z,31.27
2022-12-16T20:20:24.485Z,30.20
2022-12-16T20:23:24.750Z,33.53
2022-12-16T20:26:13.820Z,33.40
2022-12-16T20:28:59.228Z,34.97
2022-12-16T20:31:45.210Z,36.50
2022-12-16T20:34:30.728Z,34.10
2022-12-16T20:37:16.239Z,35.10
2022-12-16T20:40:08.399Z,29.33
2022-12-16T20:42:54.975Z,29.43
2022-12-16T20:45:41.842Z,25.50
2022-12-16T20:48:32.181Z,27.37
2022-12-16T20:51:25.860Z,27.50
2022-12-16T20:54:12.149Z,25.97
2022-12-16T20:57:12.508Z,25.63
2022-12-16T20:59:58.546Z,25.20
2022-12-16T21:02:44.081Z,26.53
2022-12-16T21:05:29.533Z,26.50
2022-12-16T21:08:14.983Z,26.33
2022-12-16T21:11:00.497Z,26.63
2022-12-16T21:13:47.715Z,27.07
2022-12-16T21:16:33.263Z,25.43
2022-12-16T21:19:18.725Z,25.37
2022-12-16T21:22:04.243Z,25.40
2022-12-16T21:24:49.946Z,24.47
2022-12-16T21:27:35.380Z,23.43
2022-12-16T21:30:22.603Z,24.63
2022-12-16T21:33:09.215Z,25.33
2022-12-16T21:35:56.028Z,25.03
2022-12-16T21:38:41.554Z,23.77
2022-12-16T21:41:32.289Z,22.57
2022-12-16T21:44:17.611Z,23.93
2022-12-16T21:47:04.360Z,22.00
2022-12-16T21:49:49.876Z,21.93
2022-12-16T21:52:35.153Z,22.40
2022-12-16T21:55:20.720Z,21.50
2022-12-16T21:58:06.132Z,23.00
2022-12-16T22:00:53.587Z,23.83
2022-12-16T22:03:56.916Z,21.70
2022-12-16T22:09:47.733Z,20.60
2022-12-16T22:12:33.118Z,20.50
2022-12-16T22:15:18.618Z,21.30
2022-12-16T22:18:04.022Z,20.57
2022-12-16T22:20:47.172Z,19.53
2022-12-16T22:23:32.708Z,20.60
2022-12-16T22:26:19.304Z,21.53
2022-12-16T22:29:04.816Z,20.03
2022-12-16T22:31:50.193Z,20.53
2022-12-16T22:34:36.083Z,20.90
2022-12-16T22:36:21.966Z,22.47
2022-12-16T22:37:31.158Z,20.47
2022-12-16T22:40:16.569Z,22.00
2022-12-16T22:43:01.985Z,21.40
2022-12-16T22:45:47.660Z,22.47
2022-12-16T22:48:33.128Z,21.53
2022-12-16T22:51:18.632Z,21.53
2022-12-16T22:54:06.893Z,19.50
2022-12-16T22:56:52.225Z,21.80
2022-12-16T22:59:37.716Z,19.73
2022-12-16T23:02:23.081Z,21.17
2022-12-16T23:05:08.528Z,20.50
2022-12-16T23:08:06.327Z,21.30
2022-12-16T23:10:53.013Z,21.60
2022-12-16T23:13:44.946Z,20.50
2022-12-16T23:16:30.537Z,21.47
2022-12-16T23:19:16.281Z,20.97
2022-12-16T23:22:01.987Z,19.97
2022-12-16T23:24:47.462Z,19.03
2022-12-16T23:27:34.263Z,18.57
2022-12-16T23:30:19.857Z,18.40
2022-12-16T23:33:04.451Z,19.03
2022-12-16T23:35:49.948Z,15.93
2022-12-16T23:38:35.320Z,18.37
2022-12-16T23:41:20.836Z,17.80
2022-12-16T23:44:07.353Z,19.10
2022-12-16T23:46:53.434Z,17.70
2022-12-16T23:49:38.928Z,18.10
2022-12-16T23:52:24.359Z,17.10
2022-12-16T23:55:09.716Z,16.43
2022-12-16T23:57:56.095Z,16.70
